createdAt,value
2023-01-11T00:00:04.709Z,3.10
2023-01-11T00:02:34.571Z,3.10
2023-01-11T00:05:04.334Z,3.10
2023-01-11T00:07:32.580Z,3.00
2023-01-11T00:10:04.744Z,3.00
2023-01-11T00:12:33.087Z,3.00
2023-01-11T00:15:01.235Z,2.90
2023-01-11T00:17:31.920Z,3.00
2023-01-11T00:20:00.056Z,2.90
2023-01-11T00:22:29.598Z,2.90
2023-01-11T00:24:57.865Z,2.90
2023-01-11T00:27:29.088Z,2.90
2023-01-11T00:30:00.277Z,2.90
2023-01-11T00:32:28.492Z,2.90
2023-01-11T00:34:56.633Z,2.80
2023-01-11T00:37:24.989Z,2.80
2023-01-11T00:39:54.524Z,2.80
2023-01-11T00:42:48.404Z,2.80
2023-01-11T00:45:34.028Z,2.80
2023-01-11T00:48:05.024Z,2.80
2023-01-11T00:50:34.803Z,2.70
2023-01-11T00:53:03.278Z,2.60
2023-01-11T00:55:33.118Z,2.50
2023-01-11T00:58:01.622Z,2.50
2023-01-11T01:00:31.047Z,2.40
2023-01-11T01:02:59.195Z,2.40
2023-01-11T01:05:27.504Z,2.40
2023-01-11T01:07:55.796Z,2.40
2023-01-11T01:10:24.022Z,2.30
2023-01-11T01:13:11.148Z,2.30
2023-01-11T01:15:39.799Z,2.30
2023-01-11T01:18:08.576Z,2.30
2023-01-11T01:20:36.967Z,2.30
2023-01-11T01:23:05.203Z,2.30
2023-01-11T01:25:33.433Z,2.30
2023-01-11T01:28:03.022Z,2.40
2023-01-11T01:30:31.227Z,2.40
2023-01-11T01:32:59.318Z,2.50
2023-01-11T01:35:27.468Z,2.60
2023-01-11T01:37:55.771Z,2.60
2023-01-11T01:40:27.004Z,2.60
2023-01-11T01:42:55.682Z,2.70
2023-01-11T01:45:26.322Z,2.70
2023-01-11T01:47:58.523Z,2.60
2023-01-11T01:50:29.435Z,2.60
2023-01-11T01:53:00.143Z,2.50
2023-01-11T01:55:29.956Z,2.40
2023-01-11T01:57:59.098Z,2.40
2023-01-11T02:00:28.664Z,2.40
2023-01-11T02:02:57.908Z,2.40
2023-01-11T02:05:26.325Z,2.30
2023-01-11T02:07:57.613Z,2.30
2023-01-11T02:10:28.053Z,2.30
2023-01-11T02:12:59.174Z,2.20
2023-01-11T02:15:28.855Z,2.20
2023-01-11T02:17:57.065Z,2.30
2023-01-11T02:20:33.333Z,2.20
2023-01-11T02:23:19.593Z,2.30
2023-01-11T02:26:02.732Z,2.40
2023-01-11T02:28:33.781Z,2.40
2023-01-11T02:31:06.363Z,2.40
2023-01-11T02:33:39.583Z,2.40
2023-01-11T02:36:10.464Z,2.40
2023-01-11T02:38:43.098Z,2.30
2023-01-11T02:41:16.867Z,2.20
2023-01-11T02:44:06.656Z,2.30
2023-01-11T02:46:41.681Z,2.30
2023-01-11T02:49:13.308Z,2.30
2023-01-11T02:51:42.898Z,2.30
2023-01-11T02:54:12.486Z,2.40
2023-01-11T02:56:42.396Z,2.40
2023-01-11T02:59:13.066Z,2.30
2023-01-11T03:01:47.331Z,2.30
2023-01-11T03:04:25.448Z,2.30
2023-01-11T03:06:55.793Z,2.30
2023-01-11T03:09:28.247Z,2.40
2023-01-11T03:12:21.027Z,2.40
2023-01-11T03:14:54.446Z,2.40
2023-01-11T03:17:30.151Z,2.50
2023-01-11T03:20:02.815Z,2.40
2023-01-11T03:22:34.815Z,2.40
2023-01-11T03:25:07.689Z,2.40
2023-01-11T03:27:39.421Z,2.40
2023-01-11T03:30:11.397Z,2.40
2023-01-11T03:32:45.958Z,2.50
2023-01-11T03:35:18.076Z,2.40
2023-01-11T03:37:49.270Z,2.40
2023-01-11T03:40:20.304Z,2.40
2023-01-11T03:43:16.046Z,2.40
2023-01-11T03:45:50.515Z,2.40
2023-01-11T03:48:21.258Z,2.40
2023-01-11T03:50:50.842Z,2.50
2023-01-11T03:53:19.501Z,2.40
2023-01-11T03:55:49.403Z,2.50
2023-01-11T03:58:17.684Z,2.40
2023-01-11T04:00:51.007Z,2.40
2023-01-11T04:03:19.215Z,2.50
2023-01-11T04:05:48.408Z,2.50
2023-01-11T04:08:16.584Z,2.50
2023-01-11T04:10:44.723Z,2.50
2023-01-11T04:13:13.028Z,2.50
2023-01-11T04:15:41.155Z,2.50
2023-01-11T04:18:10.747Z,2.50
2023-01-11T04:20:40.419Z,2.50
2023-01-11T04:23:09.608Z,2.50
2023-01-11T04:25:37.866Z,2.50
2023-01-11T04:28:06.138Z,2.50
2023-01-11T04:30:36.127Z,2.50
2023-01-11T04:33:04.479Z,2.50
2023-01-11T04:35:34.055Z,2.40
2023-01-11T04:38:02.433Z,2.50
2023-01-11T04:40:30.628Z,2.60
2023-01-11T04:43:02.205Z,2.60
2023-01-11T04:45:30.652Z,2.60
2023-01-11T04:47:59.312Z,2.70
2023-01-11T04:50:28.109Z,2.70
2023-01-11T04:52:59.356Z,2.80
2023-01-11T04:55:27.613Z,2.80
2023-01-11T04:57:55.856Z,2.80
2023-01-11T05:00:24.013Z,2.80
2023-01-11T05:02:52.201Z,2.70
2023-01-11T05:05:20.470Z,2.80
2023-01-11T05:07:49.638Z,2.80
2023-01-11T05:10:21.022Z,2.80
2023-01-11T05:12:49.335Z,2.90
2023-01-11T05:15:17.691Z,2.90
2023-01-11T05:17:45.843Z,3.00
2023-01-11T05:20:14.669Z,2.90
2023-01-11T05:22:42.891Z,2.90
2023-01-11T05:25:11.092Z,2.90
2023-01-11T05:27:40.837Z,2.90
2023-01-11T05:30:09.978Z,2.90
2023-01-11T05:32:38.221Z,2.90
2023-01-11T05:35:10.287Z,2.90
2023-01-11T05:37:38.495Z,2.90
2023-01-11T05:40:07.648Z,2.90
2023-01-11T05:42:35.807Z,3.00
2023-01-11T05:45:23.521Z,2.90
2023-01-11T05:47:53.837Z,3.00
2023-01-11T05:50:22.026Z,3.00
2023-01-11T05:52:50.323Z,3.00
2023-01-11T05:55:18.472Z,3.00
2023-01-11T05:57:46.768Z,3.00
2023-01-11T06:00:17.073Z,3.00
2023-01-11T06:02:45.439Z,3.00
2023-01-11T06:05:13.817Z,3.00
2023-01-11T06:07:41.947Z,3.00
2023-01-11T06:10:11.248Z,3.00
2023-01-11T06:12:39.497Z,2.90
2023-01-11T06:15:08.383Z,2.90
2023-01-11T06:17:38.047Z,2.90
2023-01-11T06:20:06.986Z,3.00
2023-01-11T06:22:35.207Z,3.00
2023-01-11T06:25:04.913Z,3.00
2023-01-11T06:27:33.204Z,3.00
2023-01-11T06:30:01.322Z,3.00
2023-01-11T06:32:30.575Z,3.00
2023-01-11T06:35:00.342Z,3.00
2023-01-11T06:37:28.540Z,3.10
2023-01-11T06:39:56.716Z,3.10
2023-01-11T06:42:24.909Z,3.00
2023-01-11T06:44:53.126Z,3.10
2023-01-11T06:47:23.708Z,3.20
2023-01-11T06:49:51.860Z,3.20
2023-01-11T06:52:21.442Z,3.20
2023-01-11T06:54:49.778Z,3.20
2023-01-11T06:57:17.877Z,3.20
2023-01-11T06:59:45.974Z,3.30
2023-01-11T07:02:14.310Z,3.30
2023-01-11T07:04:45.149Z,3.40
2023-01-11T07:07:13.433Z,3.40
2023-01-11T07:09:43.639Z,3.40
2023-01-11T07:12:11.922Z,3.40
2023-01-11T07:14:40.048Z,3.40
2023-01-11T07:17:08.271Z,3.40
2023-01-11T07:19:36.538Z,3.50
2023-01-11T07:22:04.686Z,3.60
2023-01-11T07:24:33.036Z,3.50
2023-01-11T07:27:03.149Z,3.50
2023-01-11T07:29:32.848Z,3.50
2023-01-11T07:32:01.071Z,3.50
2023-01-11T07:34:29.273Z,3.60
2023-01-11T07:37:00.049Z,3.60
2023-01-11T07:39:42.220Z,3.70
2023-01-11T07:42:29.831Z,3.70
2023-01-11T07:44:58.113Z,3.70
2023-01-11T07:47:29.241Z,3.80
2023-01-11T07:49:57.490Z,3.70
2023-01-11T07:52:25.766Z,4.40
2023-01-11T07:54:53.915Z,3.90
2023-01-11T07:57:23.476Z,3.80
2023-01-11T07:59:51.743Z,3.80
2023-01-11T08:02:19.882Z,3.80
2023-01-11T08:04:48.163Z,3.80
2023-01-11T08:07:16.341Z,3.80
2023-01-11T08:09:45.641Z,3.80
2023-01-11T08:12:31.378Z,3.80
2023-01-11T08:15:01.129Z,3.80
2023-01-11T08:17:29.240Z,3.80
2023-01-11T08:19:57.474Z,3.90
2023-01-11T08:22:25.599Z,3.90
2023-01-11T08:24:53.748Z,3.90
2023-01-11T08:27:22.021Z,3.90
2023-01-11T08:29:50.214Z,3.80
2023-01-11T08:32:20.022Z,3.90
2023-01-11T08:34:48.358Z,4.00
2023-01-11T08:37:16.468Z,3.90
2023-01-11T08:39:44.779Z,3.90
2023-01-11T08:42:12.942Z,3.90
2023-01-11T08:44:41.486Z,4.00
2023-01-11T08:47:09.651Z,3.90
2023-01-11T08:49:43.039Z,3.90
2023-01-11T08:52:12.746Z,3.90
2023-01-11T08:54:41.400Z,3.80
2023-01-11T08:57:10.011Z,3.80
2023-01-11T08:59:40.510Z,3.70
2023-01-11T09:02:08.973Z,3.70
2023-01-11T09:04:37.078Z,3.70
2023-01-11T09:07:06.830Z,3.70
2023-01-11T09:09:35.046Z,3.60
2023-01-11T09:12:05.866Z,3.60
2023-01-11T09:14:34.456Z,3.50
2023-01-11T09:17:02.856Z,3.50
2023-01-11T09:19:33.819Z,3.50
2023-01-11T09:22:03.157Z,3.50
2023-01-11T09:24:32.973Z,3.50
2023-01-11T09:27:01.729Z,3.40
2023-01-11T09:29:29.948Z,3.40
2023-01-11T09:32:00.612Z,3.40
2023-01-11T09:34:28.811Z,3.40
2023-01-11T09:37:00.160Z,3.40
2023-01-11T09:39:29.007Z,3.40
2023-01-11T09:42:11.969Z,3.30
2023-01-11T09:44:47.020Z,3.30
2023-01-11T09:47:20.226Z,3.30
2023-01-11T09:49:52.134Z,3.30
2023-01-11T09:52:25.199Z,3.20
2023-01-11T09:54:53.772Z,3.20
2023-01-11T09:57:31.088Z,3.30
2023-01-11T10:00:05.113Z,3.20
2023-01-11T10:02:38.307Z,3.20
2023-01-11T10:05:23.720Z,3.20
2023-01-11T10:18:38.882Z,3.20
2023-01-11T10:19:38.310Z,3.20
2023-01-11T10:22:12.333Z,3.20
2023-01-11T10:24:42.581Z,3.20
2023-01-11T10:27:16.239Z,3.20
2023-01-11T10:29:59.686Z,3.20
2023-01-11T10:32:45.995Z,3.20
2023-01-11T10:35:29.957Z,3.20
2023-01-11T10:38:23.117Z,3.30
2023-01-11T10:41:06.674Z,3.20
2023-01-11T10:43:36.178Z,3.20
2023-01-11T10:46:08.686Z,3.20
2023-01-11T10:48:38.968Z,3.20
2023-01-11T10:51:12.929Z,3.20
2023-01-11T10:53:44.033Z,3.20
2023-01-11T10:56:20.092Z,3.20
2023-01-11T10:58:57.988Z,3.20
2023-01-11T11:01:32.683Z,3.20
2023-01-11T11:04:07.878Z,3.20
2023-01-11T11:06:39.587Z,3.20
2023-01-11T11:09:14.731Z,3.20
2023-01-11T11:11:47.219Z,3.20
2023-01-11T11:14:19.473Z,3.20
2023-01-11T11:16:52.751Z,3.20
2023-01-11T11:19:23.601Z,3.20
2023-01-11T11:21:52.663Z,3.20
2023-01-11T11:24:24.133Z,3.20
2023-01-11T11:26:55.542Z,3.20
2023-01-11T11:29:29.373Z,3.20
2023-01-11T11:31:59.113Z,3.20
2023-01-11T11:34:31.179Z,3.20
2023-01-11T11:37:00.846Z,3.20
2023-01-11T11:39:30.406Z,3.20
2023-01-11T11:42:05.124Z,3.20
2023-01-11T11:44:33.314Z,3.20
2023-01-11T11:47:02.455Z,3.20
2023-01-11T11:49:33.065Z,3.20
2023-01-11T11:52:01.896Z,3.20
2023-01-11T11:54:31.250Z,3.20
2023-01-11T11:57:00.345Z,3.20
2023-01-11T11:59:30.259Z,3.20
2023-01-11T12:02:01.210Z,3.20
2023-01-11T12:04:37.527Z,3.30
2023-01-11T12:07:07.330Z,3.20
2023-01-11T12:09:36.459Z,3.30
2023-01-11T12:12:05.633Z,3.20
2023-01-11T12:14:35.332Z,3.20
2023-01-11T12:17:17.375Z,3.30
2023-01-11T12:19:47.942Z,3.30
2023-01-11T12:22:18.588Z,3.30
2023-01-11T12:24:49.979Z,3.30
2023-01-11T12:27:24.651Z,3.30
2023-01-11T12:30:09.115Z,3.30
2023-01-11T12:32:54.862Z,3.30
2023-01-11T12:35:36.066Z,3.30
2023-01-11T12:38:17.374Z,3.40
2023-01-11T12:40:48.616Z,3.40
2023-01-11T12:43:25.337Z,3.40
2023-01-11T12:45:59.746Z,3.40
2023-01-11T12:48:37.678Z,3.40
2023-01-11T12:51:14.824Z,3.40
2023-01-11T12:53:47.694Z,3.40
2023-01-11T12:56:36.733Z,3.40
2023-01-11T12:59:11.475Z,3.50
2023-01-11T13:01:49.691Z,3.50
2023-01-11T13:04:32.810Z,3.50
2023-01-11T13:07:08.306Z,3.50
2023-01-11T13:09:43.489Z,3.60
2023-01-11T13:12:13.595Z,3.60
2023-01-11T13:14:45.825Z,3.60
2023-01-11T13:17:21.609Z,3.60
2023-01-11T13:19:54.766Z,3.70
2023-01-11T13:22:27.133Z,3.70
2023-01-11T13:24:55.919Z,3.70
2023-01-11T13:27:25.632Z,3.80
2023-01-11T13:29:55.605Z,3.70
2023-01-11T13:32:25.516Z,3.80
2023-01-11T13:34:55.839Z,3.90
2023-01-11T13:37:29.071Z,3.90
2023-01-11T13:40:00.503Z,4.00
2023-01-11T13:42:32.279Z,4.00
2023-01-11T13:45:03.194Z,4.10
2023-01-11T13:47:35.677Z,4.10
2023-01-11T13:50:05.128Z,4.10
2023-01-11T13:52:41.084Z,4.10
2023-01-11T13:55:20.967Z,4.20
2023-01-11T13:57:54.959Z,4.20
2023-01-11T14:00:24.770Z,4.20
2023-01-11T14:02:56.039Z,4.20
2023-01-11T14:05:24.930Z,4.20
2023-01-11T14:08:05.144Z,4.20
2023-01-11T14:10:47.135Z,4.30
2023-01-11T14:13:40.746Z,4.30
2023-01-11T14:16:14.182Z,4.30
2023-01-11T14:18:44.602Z,4.40
2023-01-11T14:21:16.925Z,4.40
2023-01-11T14:23:48.656Z,4.40
2023-01-11T14:26:32.174Z,4.40
2023-01-11T14:29:05.377Z,4.40
2023-01-11T14:31:51.934Z,4.40
2023-01-11T14:34:43.933Z,4.40
2023-01-11T14:37:20.891Z,4.40
2023-01-11T14:40:04.754Z,4.40
2023-01-11T14:42:42.975Z,4.50
2023-01-11T14:45:17.227Z,4.50
2023-01-11T14:48:00.456Z,4.50
2023-01-11T14:50:38.622Z,4.60
2023-01-11T14:53:08.681Z,4.50
2023-01-11T14:55:45.144Z,4.50
2023-01-11T14:58:21.534Z,4.60
2023-01-11T15:01:04.841Z,4.50
2023-01-11T15:03:36.107Z,4.50
2023-01-11T15:06:14.924Z,4.50
2023-01-11T15:08:44.395Z,4.40
2023-01-11T15:11:31.266Z,4.40
2023-01-11T15:14:03.171Z,4.40
2023-01-11T15:16:52.579Z,4.40
2023-01-11T15:19:29.334Z,4.40
2023-01-11T15:21:58.505Z,4.40
2023-01-11T15:24:28.052Z,4.40
2023-01-11T15:26:58.814Z,4.40
2023-01-11T15:29:28.751Z,4.50
2023-01-11T15:32:07.395Z,4.50
2023-01-11T15:34:42.936Z,4.50
2023-01-11T15:37:23.046Z,4.50
2023-01-11T15:39:55.843Z,4.60
2023-01-11T15:42:37.606Z,4.50
2023-01-11T15:45:23.540Z,4.50
2023-01-11T15:48:02.383Z,4.60
2023-01-11T15:50:50.149Z,4.50
2023-01-11T15:53:33.278Z,4.50
2023-01-11T15:56:22.341Z,4.50
2023-01-11T15:59:03.161Z,4.50
2023-01-11T16:01:32.423Z,4.80
2023-01-11T16:04:20.016Z,4.60
2023-01-11T16:06:53.087Z,4.50
2023-01-11T16:09:41.396Z,4.50
2023-01-11T16:12:25.215Z,4.50
2023-01-11T16:15:05.769Z,4.50
2023-01-11T16:17:33.879Z,4.50
2023-01-11T16:20:14.058Z,4.50
2023-01-11T16:22:42.757Z,4.60
2023-01-11T16:25:15.169Z,4.50
2023-01-11T16:27:44.226Z,4.60
2023-01-11T16:30:19.424Z,4.70
2023-01-11T16:32:47.548Z,4.60
2023-01-11T16:35:20.744Z,4.60
2023-01-11T16:37:51.617Z,4.60
2023-01-11T16:40:21.345Z,4.60
2023-01-11T16:42:52.470Z,4.60
2023-01-11T16:45:23.354Z,4.50
2023-01-11T16:48:05.091Z,4.60
2023-01-11T16:50:33.388Z,4.50
2023-01-11T16:53:02.042Z,4.50
2023-01-11T16:55:32.700Z,4.50
2023-01-11T16:58:02.596Z,4.40
2023-01-11T17:00:36.303Z,4.40
2023-01-11T17:03:25.450Z,4.40
2023-01-11T17:05:54.257Z,4.40
2023-01-11T17:08:26.745Z,4.40
2023-01-11T17:10:55.939Z,4.40
2023-01-11T17:13:49.860Z,4.50
2023-01-11T17:16:19.966Z,4.50
2023-01-11T17:18:48.403Z,4.50
2023-01-11T17:21:19.395Z,4.50
2023-01-11T17:23:48.456Z,4.50
2023-01-11T17:26:18.319Z,4.50
2023-01-11T17:28:46.718Z,4.40
2023-01-11T17:31:21.099Z,4.40
2023-01-11T17:34:05.606Z,4.30
2023-01-11T17:36:34.372Z,4.30
2023-01-11T17:39:02.883Z,4.30
2023-01-11T17:41:48.759Z,4.30
2023-01-11T17:44:38.594Z,4.20
2023-01-11T17:47:08.499Z,4.30
2023-01-11T17:49:39.006Z,4.30
2023-01-11T17:52:10.901Z,4.30
2023-01-11T17:54:41.831Z,4.30
2023-01-11T17:57:10.848Z,4.20
2023-01-11T17:59:39.081Z,4.20
2023-01-11T18:02:12.176Z,4.20
2023-01-11T18:04:42.818Z,4.30
2023-01-11T18:07:16.334Z,4.20
2023-01-11T18:09:46.494Z,4.30
2023-01-11T18:12:15.627Z,4.30
2023-01-11T18:14:49.204Z,4.30
2023-01-11T18:17:30.405Z,4.30
2023-01-11T18:20:00.480Z,4.30
2023-01-11T18:22:30.057Z,4.30
2023-01-11T18:24:58.817Z,4.20
2023-01-11T18:27:28.086Z,4.20
2023-01-11T18:29:57.277Z,4.30
2023-01-11T18:32:26.129Z,4.30
2023-01-11T18:34:55.549Z,4.30
2023-01-11T18:37:25.282Z,4.30
2023-01-11T18:39:54.248Z,4.20
2023-01-11T18:42:25.375Z,4.20
2023-01-11T18:44:53.692Z,4.20
2023-01-11T18:47:22.692Z,4.20
2023-01-11T18:49:51.191Z,4.30
2023-01-11T18:52:19.632Z,4.30
2023-01-11T18:54:49.513Z,4.30
2023-01-11T18:57:18.822Z,4.20
2023-01-11T18:59:47.072Z,4.20
2023-01-11T19:04:46.718Z,4.20
2023-01-11T19:07:15.482Z,4.20
2023-01-11T19:09:45.314Z,4.20
2023-01-11T19:12:14.904Z,4.20
2023-01-11T19:14:43.271Z,4.20
2023-01-11T19:17:11.967Z,4.20
2023-01-11T19:19:40.370Z,4.10
2023-01-11T19:22:09.287Z,4.20
2023-01-11T19:24:37.455Z,4.10
2023-01-11T19:27:05.827Z,4.10
2023-01-11T19:29:35.651Z,4.20
2023-01-11T19:32:03.781Z,4.20
2023-01-11T19:34:36.242Z,4.20
2023-01-11T19:37:04.381Z,4.20
2023-01-11T19:39:35.675Z,4.20
2023-01-11T19:42:03.861Z,4.20
2023-01-11T19:44:34.096Z,4.20
2023-01-11T19:47:12.763Z,4.20
2023-01-11T19:49:41.667Z,4.20
2023-01-11T19:52:13.431Z,3.90
2023-01-11T19:54:43.228Z,4.10
2023-01-11T19:57:11.752Z,4.10
2023-01-11T19:59:39.953Z,4.10
2023-01-11T20:02:11.275Z,4.10
2023-01-11T20:04:39.661Z,4.00
2023-01-11T20:07:08.331Z,4.00
2023-01-11T20:09:38.178Z,3.90
2023-01-11T20:12:06.426Z,3.90
2023-01-11T20:14:38.363Z,3.90
2023-01-11T20:17:06.536Z,3.90
2023-01-11T20:19:37.889Z,3.80
2023-01-11T20:22:06.420Z,3.80
2023-01-11T20:24:34.664Z,3.80
2023-01-11T20:27:03.581Z,3.80
2023-01-11T20:29:31.953Z,3.80
2023-01-11T20:32:15.397Z,3.80
2023-01-11T20:34:49.666Z,3.80
2023-01-11T20:37:17.905Z,3.80
2023-01-11T20:39:46.100Z,3.80
2023-01-11T20:42:14.278Z,3.90
2023-01-11T20:44:42.584Z,3.80
2023-01-11T20:47:10.846Z,3.90
2023-01-11T20:49:39.311Z,4.00
2023-01-11T20:52:08.865Z,3.90
2023-01-11T20:54:37.730Z,3.90
2023-01-11T20:57:12.407Z,3.90
2023-01-11T20:59:40.731Z,3.90
2023-01-11T21:02:09.507Z,3.90
2023-01-11T21:04:37.785Z,3.90
2023-01-11T21:07:05.942Z,3.90
2023-01-11T21:09:35.500Z,3.80
2023-01-11T21:12:03.832Z,3.90
2023-01-11T21:14:32.003Z,3.60
2023-01-11T21:17:00.146Z,3.90
2023-01-11T21:19:28.400Z,3.90
2023-01-11T21:21:56.606Z,3.90
2023-01-11T21:24:24.921Z,3.80
2023-01-11T21:26:54.700Z,3.80
2023-01-11T21:29:22.844Z,3.80
2023-01-11T21:31:51.031Z,3.70
2023-01-11T21:34:19.450Z,3.70
2023-01-11T21:36:47.646Z,3.70
2023-01-11T21:39:16.452Z,3.60
2023-01-11T21:41:57.635Z,3.60
2023-01-11T21:44:30.840Z,3.60
2023-01-11T21:46:59.235Z,3.60
2023-01-11T21:49:27.423Z,3.60
2023-01-11T21:51:55.744Z,3.70
2023-01-11T21:54:23.957Z,3.70
2023-01-11T21:56:52.241Z,3.70
2023-01-11T21:59:21.743Z,3.70
2023-01-11T22:01:51.491Z,3.80
2023-01-11T22:04:20.654Z,3.80
2023-01-11T22:06:51.629Z,3.80
2023-01-11T22:09:20.451Z,3.80
2023-01-11T22:11:49.902Z,3.80
2023-01-11T22:14:18.095Z,3.80
2023-01-11T22:16:46.202Z,3.80
2023-01-11T22:19:15.904Z,3.80
2023-01-11T22:21:44.077Z,3.80
2023-01-11T22:24:13.231Z,3.70
2023-01-11T22:26:41.442Z,3.70
2023-01-11T22:29:20.100Z,3.70
2023-01-11T22:31:49.861Z,3.70
2023-01-11T22:34:19.795Z,3.70
2023-01-11T22:36:48.066Z,3.70
2023-01-11T22:39:17.005Z,3.60
2023-01-11T22:41:46.084Z,3.60
2023-01-11T22:44:14.549Z,3.50
2023-01-11T22:46:44.962Z,3.50
2023-01-11T22:49:13.617Z,3.50
2023-01-11T22:51:43.837Z,3.50
2023-01-11T22:54:12.130Z,3.60
2023-01-11T22:56:40.536Z,3.70
2023-01-11T22:59:08.997Z,4.40
2023-01-11T23:01:37.708Z,3.60
2023-01-11T23:04:06.332Z,3.60
2023-01-11T23:06:35.822Z,3.60
2023-01-11T23:09:05.870Z,3.50
2023-01-11T23:11:54.803Z,3.50
2023-01-11T23:14:23.300Z,3.40
2023-01-11T23:16:51.579Z,3.30
2023-01-11T23:19:20.868Z,3.30
2023-01-11T23:21:49.243Z,3.30
2023-01-11T23:24:19.059Z,3.30
2023-01-11T23:26:47.272Z,3.30
2023-01-11T23:29:15.512Z,3.30
2023-01-11T23:31:44.004Z,3.30
2023-01-11T23:34:13.005Z,3.30
2023-01-11T23:36:42.295Z,3.30
2023-01-11T23:39:12.861Z,3.30
2023-01-11T23:41:59.642Z,3.40
2023-01-11T23:44:27.784Z,3.40
2023-01-11T23:47:13.755Z,3.40
2023-01-11T23:49:43.462Z,3.40
2023-01-11T23:52:14.476Z,3.30
2023-01-11T23:54:43.495Z,3.30
2023-01-11T23:57:13.759Z,3.30
2023-01-11T23:59:42.693Z,3.30
